Time;durP1;ratioP1;P1;durP2;ratioP2;P2;SDS_P1;SDS_P2;PMS_P1;PMS_P2;Temp;Humidity;BMP_temperature;BMP_pressure;BME280_temperature;BME280_humidity;BME280_pressure;Samples;Min_cycle;Max_cycle;Signal;HPM_P1;HPM_P2
2021/08/17 00:00:31;;;;;;;7.18;3.03;;;23.70;66.70;;;;;;5076448;28;20368;-51
2021/08/17 00:02:58;;;;;;;4.57;2.85;;;23.70;66.80;;;;;;5076392;28;20055;-52
2021/08/17 00:05:25;;;;;;;6.68;3.20;;;23.70;66.90;;;;;;5076131;28;20048;-52
2021/08/17 00:07:51;;;;;;;6.72;2.97;;;23.70;66.90;;;;;;5076152;28;20055;-53
2021/08/17 00:10:18;;;;;;;8.48;3.05;;;23.70;66.80;;;;;;5076371;28;20039;-52
2021/08/17 00:12:44;;;;;;;6.45;3.22;;;23.70;66.80;;;;;;5074767;28;20549;-51
2021/08/17 00:15:12;;;;;;;5.53;3.30;;;23.70;66.80;;;;;;5075750;28;20064;-52
2021/08/17 00:17:39;;;;;;;5.38;2.95;;;23.70;66.90;;;;;;5076104;28;20028;-51
2021/08/17 00:20:07;;;;;;;6.90;3.10;;;23.70;66.90;;;;;;5075906;28;20021;-51
2021/08/17 00:22:36;;;;;;;5.95;3.03;;;23.60;66.90;;;;;;5076027;28;20024;-51
2021/08/17 00:25:03;;;;;;;5.40;3.15;;;23.60;67.10;;;;;;5076003;28;20123;-51
2021/08/17 00:27:30;;;;;;;7.53;3.03;;;23.60;67.00;;;;;;5075885;28;20039;-52
2021/08/17 00:29:57;;;;;;;5.93;3.13;;;23.60;67.00;;;;;;5075623;28;20021;-52
2021/08/17 00:32:24;;;;;;;5.55;2.85;;;23.60;67.00;;;;;;5076146;28;20044;-52
2021/08/17 00:34:51;;;;;;;7.00;2.90;;;23.60;67.00;;;;;;5075717;28;20032;-52
2021/08/17 00:37:19;;;;;;;8.23;3.00;;;23.60;67.20;;;;;;5075422;28;20028;-52
2021/08/17 00:39:46;;;;;;;6.15;2.95;;;23.60;67.30;;;;;;5075620;28;20054;-52
2021/08/17 00:42:12;;;;;;;5.85;2.78;;;23.60;67.40;;;;;;5075459;28;20055;-52
2021/08/17 00:44:39;;;;;;;5.80;2.75;;;23.60;67.40;;;;;;5075593;28;20063;-52
2021/08/17 00:47:05;;;;;;;9.20;3.38;;;23.60;67.50;;;;;;5075850;28;20048;-52
2021/08/17 00:49:32;;;;;;;8.35;2.97;;;23.50;67.50;;;;;;5075399;28;20027;-52
2021/08/17 00:52:04;;;;;;;5.90;3.00;;;23.60;67.70;;;;;;5075289;28;20031;-52
2021/08/17 00:54:30;;;;;;;8.23;2.80;;;23.60;67.70;;;;;;5075509;28;20029;-52
2021/08/17 00:56:57;;;;;;;7.68;3.22;;;23.60;67.80;;;;;;5075077;28;20032;-52
2021/08/17 00:59:24;;;;;;;5.93;2.63;;;23.60;67.80;;;;;;5074963;28;20027;-52
2021/08/17 01:01:51;;;;;;;6.20;2.90;;;23.60;67.90;;;;;;5075535;28;20024;-52
2021/08/17 01:04:18;;;;;;;6.65;3.22;;;23.60;67.90;;;;;;5075159;28;20058;-51
2021/08/17 01:06:44;;;;;;;8.80;3.33;;;23.60;67.90;;;;;;5075431;28;20032;-52
2021/08/17 01:09:11;;;;;;;6.60;2.95;;;23.60;67.80;;;;;;5074995;28;20028;-52
2021/08/17 01:11:48;;;;;;;7.28;2.88;;;23.60;67.80;;;;;;5074909;28;20408;-51
2021/08/17 01:14:20;;;;;;;5.60;3.03;;;23.60;67.80;;;;;;5075010;28;20036;-51
2021/08/17 01:16:47;;;;;;;5.22;2.85;;;23.60;67.80;;;;;;5074864;28;20111;-52
2021/08/17 01:19:19;;;;;;;11.20;3.20;;;23.60;67.70;;;;;;5074714;28;20035;-53
2021/08/17 01:21:46;;;;;;;6.78;2.83;;;23.60;67.80;;;;;;5074957;28;20119;-52
2021/08/17 01:24:13;;;;;;;6.05;2.85;;;23.60;67.80;;;;;;5074382;28;20037;-52
2021/08/17 01:26:40;;;;;;;7.40;2.95;;;23.70;67.90;;;;;;5074849;28;20472;-52
2021/08/17 01:29:10;;;;;;;6.53;3.03;;;23.70;67.90;;;;;;5074610;28;20060;-52
2021/08/17 01:31:37;;;;;;;9.77;3.20;;;23.70;67.90;;;;;;5074700;28;20147;-52
2021/08/17 01:34:04;;;;;;;4.93;2.95;;;23.70;67.90;;;;;;5074229;28;20033;-52
2021/08/17 01:36:31;;;;;;;9.52;3.58;;;23.70;67.90;;;;;;5074304;28;20397;-51
2021/08/17 01:38:58;;;;;;;10.93;3.35;;;23.70;67.80;;;;;;5074713;28;20461;-52
2021/08/17 01:41:25;;;;;;;6.05;3.20;;;23.70;67.80;;;;;;5074189;28;20021;-52
2021/08/17 01:43:51;;;;;;;8.13;3.00;;;23.70;67.70;;;;;;5074473;28;20024;-52
2021/08/17 01:46:18;;;;;;;8.50;3.22;;;23.70;67.60;;;;;;5074058;28;20052;-52
2021/08/17 01:48:45;;;;;;;8.63;3.10;;;23.70;67.50;;;;;;5073928;28;20107;-52
2021/08/17 01:51:12;;;;;;;7.97;3.22;;;23.70;67.40;;;;;;5074250;28;20107;-52
2021/08/17 01:53:39;;;;;;;6.50;2.95;;;23.80;67.40;;;;;;5074259;28;20078;-52
2021/08/17 01:56:15;;;;;;;5.72;2.60;;;23.70;67.30;;;;;;5073924;28;20032;-52
2021/08/17 01:58:43;;;;;;;9.38;3.13;;;23.70;67.30;;;;;;5072704;28;20029;-52
2021/08/17 02:01:11;;;;;;;9.50;3.10;;;23.70;67.30;;;;;;5074091;28;20028;-52
2021/08/17 02:03:39;;;;;;;8.77;3.25;;;23.70;67.30;;;;;;5073763;28;20039;-52
2021/08/17 02:06:06;;;;;;;6.10;3.40;;;23.70;67.20;;;;;;5073815;28;20368;-52
2021/08/17 02:08:33;;;;;;;8.45;3.28;;;23.70;67.20;;;;;;5073844;28;20029;-52
2021/08/17 02:10:59;;;;;;;6.20;2.97;;;23.70;67.30;;;;;;5074024;28;20028;-52
2021/08/17 02:13:28;;;;;;;6.57;3.13;;;23.70;67.30;;;;;;5073928;28;20033;-52
2021/08/17 02:15:57;;;;;;;7.18;3.20;;;23.70;67.30;;;;;;5074042;28;20017;-52
2021/08/17 02:18:23;;;;;;;7.28;3.08;;;23.70;67.30;;;;;;5073880;28;20020;-52
2021/08/17 02:20:50;;;;;;;6.05;3.08;;;23.60;67.20;;;;;;5074006;28;20116;-52
2021/08/17 02:23:16;;;;;;;10.13;3.08;;;23.60;67.20;;;;;;5073896;28;20236;-52
2021/08/17 02:25:43;;;;;;;5.28;2.95;;;23.60;67.30;;;;;;5073839;28;20031;-52
2021/08/17 02:28:09;;;;;;;6.00;3.50;;;23.60;67.30;;;;;;5073779;28;20028;-51
2021/08/17 02:30:36;;;;;;;7.53;3.13;;;23.60;67.20;;;;;;5073569;28;20024;-51
2021/08/17 02:33:02;;;;;;;8.48;3.28;;;23.60;67.30;;;;;;5073772;28;20040;-51
2021/08/17 02:35:29;;;;;;;5.75;2.85;;;23.60;67.30;;;;;;5073387;28;20025;-52
2021/08/17 02:37:56;;;;;;;5.45;2.90;;;23.60;67.30;;;;;;5073062;28;20439;-52
2021/08/17 02:40:22;;;;;;;5.32;2.97;;;23.60;67.30;;;;;;5073866;28;20365;-52
2021/08/17 02:42:49;;;;;;;6.00;2.70;;;23.50;67.30;;;;;;5073591;28;20043;-52
2021/08/17 02:45:15;;;;;;;4.88;2.67;;;23.50;67.30;;;;;;5073927;28;20457;-51
2021/08/17 02:47:42;;;;;;;8.30;3.13;;;23.50;67.30;;;;;;5073838;28;20078;-51
2021/08/17 02:50:09;;;;;;;7.22;2.95;;;23.50;67.30;;;;;;5073518;28;20047;-52
2021/08/17 02:52:36;;;;;;;6.25;3.03;;;23.50;67.30;;;;;;5073072;28;20380;-52
2021/08/17 02:55:03;;;;;;;7.07;2.80;;;23.40;67.20;;;;;;5073053;28;20103;-51
2021/08/17 02:57:30;;;;;;;8.25;2.90;;;23.40;67.20;;;;;;5072693;28;20384;-52
2021/08/17 02:59:56;;;;;;;5.65;3.00;;;23.40;67.10;;;;;;5073258;28;20021;-51
2021/08/17 03:02:23;;;;;;;8.20;3.13;;;23.40;67.00;;;;;;5073205;28;20032;-52
2021/08/17 03:04:49;;;;;;;5.35;3.03;;;23.40;67.00;;;;;;5073077;28;20508;-51
2021/08/17 03:07:16;;;;;;;6.70;2.97;;;23.40;67.00;;;;;;5073079;28;20090;-51
2021/08/17 03:09:42;;;;;;;8.27;3.13;;;23.30;66.90;;;;;;5073364;28;20029;-51
2021/08/17 03:12:09;;;;;;;5.75;2.90;;;23.30;66.80;;;;;;5072887;28;20029;-52
2021/08/17 03:14:36;;;;;;;9.80;3.17;;;23.30;66.90;;;;;;5073151;28;20449;-51
2021/08/17 03:17:02;;;;;;;5.65;3.05;;;23.30;67.00;;;;;;5072728;28;20033;-51
2021/08/17 03:19:29;;;;;;;8.02;2.90;;;23.30;67.00;;;;;;5072928;28;20032;-52
2021/08/17 03:21:56;;;;;;;9.05;2.78;;;23.30;67.10;;;;;;5072914;28;20022;-51
2021/08/17 03:24:22;;;;;;;7.68;3.15;;;23.20;67.20;;;;;;5072844;28;20158;-52
2021/08/17 03:26:48;;;;;;;7.88;2.85;;;23.20;67.20;;;;;;5072936;28;20067;-51
2021/08/17 03:29:15;;;;;;;11.10;3.15;;;23.20;67.30;;;;;;5073114;28;20020;-51
2021/08/17 03:31:42;;;;;;;6.85;3.00;;;23.20;67.40;;;;;;5073037;28;20051;-51
2021/08/17 03:34:08;;;;;;;6.93;3.28;;;23.20;67.40;;;;;;5072945;28;20029;-51
2021/08/17 03:36:36;;;;;;;6.53;2.70;;;23.20;67.50;;;;;;5073032;28;20431;-51
2021/08/17 03:39:03;;;;;;;5.82;3.00;;;23.20;67.50;;;;;;5072980;28;20032;-51
2021/08/17 03:41:30;;;;;;;7.50;3.05;;;23.10;67.50;;;;;;5072867;28;20048;-51
2021/08/17 03:43:56;;;;;;;6.97;2.67;;;23.10;67.60;;;;;;5072863;28;20039;-51
2021/08/17 03:46:23;;;;;;;8.88;3.00;;;23.10;67.60;;;;;;5073615;28;20039;-51
2021/08/17 03:48:49;;;;;;;8.07;3.10;;;23.10;67.60;;;;;;5076262;28;20415;-52
2021/08/17 03:51:16;;;;;;;8.13;2.95;;;23.10;67.70;;;;;;5076243;28;20389;-51
2021/08/17 03:53:42;;;;;;;5.63;2.95;;;23.10;67.80;;;;;;5076496;28;20098;-51
2021/08/17 03:56:09;;;;;;;6.18;2.72;;;23.00;67.70;;;;;;5076366;28;20058;-51
2021/08/17 03:58:35;;;;;;;5.35;2.92;;;23.00;67.80;;;;;;5075247;28;20380;-51
2021/08/17 04:01:02;;;;;;;4.53;2.78;;;23.00;67.80;;;;;;5076386;28;20048;-51
2021/08/17 04:03:29;;;;;;;7.50;3.10;;;23.00;67.90;;;;;;5076179;28;20111;-51
2021/08/17 04:05:55;;;;;;;5.90;2.80;;;23.00;67.90;;;;;;5075960;28;20048;-52
2021/08/17 04:08:22;;;;;;;4.95;2.60;;;23.00;67.90;;;;;;5074660;28;20028;-52
2021/08/17 04:10:48;;;;;;;8.38;3.10;;;23.00;67.90;;;;;;5074022;28;20055;-52
2021/08/17 04:13:15;;;;;;;8.15;3.10;;;23.00;67.90;;;;;;5075908;28;20039;-51
2021/08/17 04:15:41;;;;;;;6.10;2.90;;;23.00;67.90;;;;;;5076057;28;20024;-52
2021/08/17 04:18:08;;;;;;;5.65;2.65;;;22.90;67.90;;;;;;5075345;28;20515;-52
2021/08/17 04:20:35;;;;;;;8.13;3.22;;;22.90;68.00;;;;;;5074646;28;20111;-52
2021/08/17 04:23:03;;;;;;;7.72;3.05;;;22.90;68.00;;;;;;5075844;28;20150;-53
2021/08/17 04:25:29;;;;;;;8.73;2.75;;;22.90;68.00;;;;;;5075409;28;20028;-51
2021/08/17 04:27:56;;;;;;;8.85;2.95;;;22.90;68.10;;;;;;5074672;28;20389;-51
2021/08/17 04:30:23;;;;;;;10.70;2.75;;;22.80;68.60;;;;;;5074454;28;20028;-51
2021/08/17 04:32:50;;;;;;;9.52;2.88;;;22.80;68.00;;;;;;5075204;28;20052;-51
2021/08/17 04:35:19;;;;;;;7.90;3.05;;;22.80;68.10;;;;;;5075797;28;20025;-50
2021/08/17 04:37:47;;;;;;;15.32;3.55;;;22.80;68.20;;;;;;5076324;28;20021;-51
2021/08/17 04:40:14;;;;;;;15.93;3.20;;;22.80;68.40;;;;;;5076051;28;20358;-52
2021/08/17 04:42:40;;;;;;;11.73;3.20;;;22.80;68.50;;;;;;5076063;28;20025;-50
2021/08/17 04:45:08;;;;;;;14.15;3.80;;;22.80;68.40;;;;;;5075547;28;20380;-51
2021/08/17 04:47:34;;;;;;;15.23;3.55;;;22.80;68.40;;;;;;5075609;28;20479;-52
2021/08/17 04:50:01;;;;;;;13.70;3.42;;;22.80;68.40;;;;;;5075836;28;20423;-52
2021/08/17 04:52:27;;;;;;;16.83;3.75;;;22.80;68.50;;;;;;5074927;28;20029;-52
2021/08/17 04:54:54;;;;;;;15.13;3.45;;;22.70;68.40;;;;;;5075422;28;20520;-52
2021/08/17 04:57:20;;;;;;;14.50;3.55;;;22.70;68.40;;;;;;5075334;28;20027;-51
2021/08/17 04:59:47;;;;;;;15.30;3.58;;;22.70;68.50;;;;;;5074708;28;20028;-52
2021/08/17 05:02:13;;;;;;;9.90;3.22;;;22.70;68.40;;;;;;5075583;28;20059;-52
2021/08/17 05:04:40;;;;;;;14.52;3.22;;;22.70;68.40;;;;;;5075181;28;20020;-52
2021/08/17 05:07:07;;;;;;;13.60;3.20;;;22.70;68.40;;;;;;5075593;28;20029;-52
2021/08/17 05:09:34;;;;;;;9.57;3.10;;;22.70;68.50;;;;;;5075635;28;20020;-52
2021/08/17 05:12:00;;;;;;;16.23;3.03;;;22.60;68.40;;;;;;5075305;28;20033;-52
2021/08/17 19:16:43;;;;;;;6.70;3.67;;;23.50;59.60;;;;;;5068545;28;20423;-51
2021/08/17 19:19:09;;;;;;;10.05;3.40;;;23.50;60.90;;;;;;5069913;28;20028;-52
2021/08/17 19:21:36;;;;;;;8.93;3.63;;;23.50;60.50;;;;;;5076589;28;20056;-52
2021/08/17 19:24:04;;;;;;;8.30;3.88;;;23.60;60.30;;;;;;5077083;28;20093;-52
2021/08/17 19:26:31;;;;;;;6.93;3.60;;;23.80;60.70;;;;;;5069836;28;20044;-52
2021/08/17 19:28:58;;;;;;;5.18;3.47;;;23.90;60.30;;;;;;5072745;28;20025;-53
2021/08/17 19:31:24;;;;;;;6.68;4.20;;;24.00;60.50;;;;;;5071083;28;20052;-53
2021/08/17 19:33:51;;;;;;;5.63;3.53;;;24.10;60.10;;;;;;5077986;28;20031;-52
2021/08/17 19:36:17;;;;;;;8.15;3.80;;;24.30;59.90;;;;;;5072303;28;20082;-52
2021/08/17 19:38:48;;;;;;;8.63;3.53;;;24.30;59.50;;;;;;5070423;28;20096;-52
2021/08/17 19:41:15;;;;;;;10.93;3.78;;;24.50;59.40;;;;;;5070452;28;20373;-52
2021/08/17 19:43:42;;;;;;;5.90;3.35;;;24.60;59.30;;;;;;5070485;28;20024;-52
2021/08/17 19:46:08;;;;;;;7.93;3.88;;;24.70;58.90;;;;;;5070716;28;20032;-52
2021/08/17 19:48:35;;;;;;;8.82;4.07;;;24.80;58.80;;;;;;5069378;28;20039;-53
2021/08/17 19:51:02;;;;;;;14.93;5.10;;;24.90;58.90;;;;;;5067930;28;20020;-52
2021/08/17 19:53:28;;;;;;;12.35;4.32;;;25.00;58.70;;;;;;5068691;28;20043;-52
2021/08/17 19:56:01;;;;;;;19.02;6.50;;;25.10;59.00;;;;;;5069938;28;20027;-52
2021/08/17 19:58:28;;;;;;;20.13;5.80;;;25.20;59.10;;;;;;5070243;28;20021;-52
2021/08/17 20:00:55;;;;;;;17.05;6.03;;;25.30;59.90;;;;;;5070318;28;20115;-52
2021/08/17 20:03:22;;;;;;;15.93;5.25;;;25.40;60.30;;;;;;5070321;28;20021;-52
2021/08/17 20:05:49;;;;;;;14.30;5.45;;;25.50;60.70;;;;;;5070259;28;20111;-52
2021/08/17 20:08:15;;;;;;;11.93;4.90;;;25.50;60.70;;;;;;5069656;28;20017;-52
2021/08/17 20:10:42;;;;;;;12.48;4.65;;;25.60;61.00;;;;;;5069876;28;20029;-52
2021/08/17 20:13:08;;;;;;;15.75;4.28;;;25.70;60.30;;;;;;5069249;28;20060;-52
2021/08/17 20:15:35;;;;;;;10.38;4.20;;;25.70;60.00;;;;;;5068512;28;20087;-52
2021/08/17 20:18:02;;;;;;;10.98;3.92;;;25.80;59.50;;;;;;5070476;28;20052;-52
2021/08/17 20:20:28;;;;;;;14.23;4.30;;;25.90;59.10;;;;;;5069925;28;20017;-50
2021/08/17 20:22:55;;;;;;;7.63;3.80;;;26.00;56.80;;;;;;5069905;28;20020;-50
2021/08/17 20:25:21;;;;;;;10.73;4.05;;;26.00;57.60;;;;;;5069269;28;20087;-50
2021/08/17 20:27:48;;;;;;;7.90;3.63;;;26.10;57.00;;;;;;5057715;28;20036;-50
2021/08/17 20:30:16;;;;;;;9.43;3.95;;;26.20;56.90;;;;;;5056246;28;20021;-50
2021/08/17 20:32:42;;;;;;;9.95;3.90;;;26.20;57.10;;;;;;5062452;28;20032;-49
2021/08/17 20:35:09;;;;;;;9.43;3.67;;;26.30;57.30;;;;;;5055485;28;20392;-50
2021/08/17 20:37:36;;;;;;;7.70;3.40;;;26.40;56.20;;;;;;5056770;28;20352;-50
2021/08/17 20:40:03;;;;;;;9.25;3.50;;;26.40;54.10;;;;;;5056469;28;20437;-49
2021/08/17 20:42:29;;;;;;;8.85;3.65;;;26.50;54.90;;;;;;5055723;28;20412;-50
2021/08/17 20:44:56;;;;;;;7.18;3.58;;;26.50;54.70;;;;;;5056080;28;20028;-50
2021/08/17 20:47:23;;;;;;;9.75;3.85;;;26.50;54.90;;;;;;5056241;28;20251;-50
2021/08/17 20:49:49;;;;;;;11.05;3.30;;;26.60;54.50;;;;;;5055719;28;20469;-49
2021/08/17 20:52:16;;;;;;;8.90;3.65;;;26.60;54.30;;;;;;5055722;28;20068;-50
2021/08/17 20:54:42;;;;;;;6.47;3.00;;;26.70;54.90;;;;;;5055721;28;20111;-50
2021/08/17 20:57:09;;;;;;;6.80;3.05;;;26.70;50.30;;;;;;5055112;28;20021;-50
2021/08/17 20:59:35;;;;;;;8.60;3.58;;;26.70;52.20;;;;;;5055735;28;20032;-50
2021/08/17 21:02:02;;;;;;;13.30;3.58;;;26.80;51.70;;;;;;5056044;28;20024;-50
2021/08/17 21:04:28;;;;;;;8.63;3.60;;;26.80;52.60;;;;;;5055536;28;20527;-50
2021/08/17 21:06:55;;;;;;;7.57;3.50;;;26.80;52.40;;;;;;5052290;28;20025;-51
2021/08/17 21:09:23;;;;;;;11.80;3.83;;;26.90;52.30;;;;;;5065758;28;20461;-50
2021/08/17 21:11:50;;;;;;;11.07;3.80;;;26.90;52.70;;;;;;5035885;28;20047;-50
2021/08/17 21:14:17;;;;;;;9.55;3.17;;;26.90;53.20;;;;;;5035446;28;20568;-49
2021/08/17 21:16:44;;;;;;;11.73;3.83;;;27.00;53.20;;;;;;5035661;28;20037;-50
2021/08/17 21:19:11;;;;;;;7.63;3.42;;;27.00;53.10;;;;;;5052533;28;20108;-49
2021/08/17 21:21:38;;;;;;;9.18;3.55;;;27.00;53.50;;;;;;5055649;28;20017;-50
2021/08/17 21:24:04;;;;;;;12.98;3.53;;;27.10;53.40;;;;;;5055039;28;20021;-50
2021/08/17 21:26:31;;;;;;;9.35;3.75;;;27.10;51.00;;;;;;5055227;28;20013;-50
2021/08/17 21:28:58;;;;;;;10.77;4.50;;;27.10;52.50;;;;;;5055797;28;20067;-50
2021/08/17 21:31:24;;;;;;;7.95;3.45;;;27.10;50.60;;;;;;5054818;28;20032;-50
2021/08/17 21:33:51;;;;;;;10.75;3.70;;;27.20;51.70;;;;;;5049088;28;20033;-50
2021/08/17 21:36:17;;;;;;;10.50;3.70;;;27.20;50.70;;;;;;5055121;28;20041;-49
2021/08/17 21:38:45;;;;;;;14.30;4.30;;;27.20;51.50;;;;;;5049306;28;20098;-50
2021/08/17 21:41:11;;;;;;;16.35;4.10;;;27.20;51.00;;;;;;5033536;28;20022;-50
2021/08/17 21:43:38;;;;;;;14.48;4.10;;;27.30;51.00;;;;;;5051758;28;20025;-51
2021/08/17 21:46:06;;;;;;;12.18;3.67;;;27.30;51.90;;;;;;5053821;28;20020;-50
2021/08/17 21:48:32;;;;;;;9.05;3.38;;;27.30;51.30;;;;;;5053702;28;20021;-51
2021/08/17 21:50:59;;;;;;;14.02;3.92;;;27.30;51.20;;;;;;5055267;28;20021;-50
2021/08/17 21:53:25;;;;;;;9.30;3.25;;;27.30;51.50;;;;;;5054589;28;20349;-51
2021/08/17 21:55:52;;;;;;;10.25;4.18;;;27.40;51.60;;;;;;5054250;28;20043;-50
2021/08/17 21:58:18;;;;;;;12.05;4.20;;;27.40;50.40;;;;;;5054135;28;20033;-50
2021/08/17 22:00:45;;;;;;;12.13;4.13;;;27.40;50.60;;;;;;5034731;28;20358;-50
2021/08/17 22:03:12;;;;;;;10.73;3.88;;;27.40;50.30;;;;;;5046933;28;20421;-50
2021/08/17 22:05:38;;;;;;;14.63;3.92;;;27.40;51.90;;;;;;5054325;28;20116;-50
2021/08/17 22:08:05;;;;;;;16.75;3.95;;;27.40;51.70;;;;;;5054343;28;20104;-50
2021/08/17 22:10:33;;;;;;;12.43;3.92;;;27.40;51.30;;;;;;5054751;28;20049;-50
2021/08/17 22:12:59;;;;;;;8.93;3.78;;;27.40;52.00;;;;;;5054447;28;20025;-50
2021/08/17 22:15:26;;;;;;;11.50;3.83;;;27.40;51.10;;;;;;5053492;28;20091;-50
2021/08/17 22:17:53;;;;;;;9.75;3.40;;;27.40;51.80;;;;;;5054184;28;20036;-50
2021/08/17 22:20:21;;;;;;;11.20;3.40;;;27.40;50.80;;;;;;5054297;28;20042;-50
2021/08/17 22:22:50;;;;;;;14.02;3.60;;;27.40;50.40;;;;;;5054444;28;20147;-50
2021/08/17 22:25:17;;;;;;;11.63;4.13;;;27.40;51.40;;;;;;5054175;28;20108;-50
2021/08/17 22:27:44;;;;;;;11.45;3.78;;;27.40;51.40;;;;;;5053636;28;20029;-50
2021/08/17 22:30:14;;;;;;;10.95;3.65;;;27.30;51.40;;;;;;5054422;28;20032;-50
2021/08/17 22:32:41;;;;;;;14.02;4.05;;;27.40;51.50;;;;;;5062163;28;20108;-51
2021/08/17 22:35:08;;;;;;;11.63;3.83;;;27.30;51.60;;;;;;5074117;28;20064;-50
2021/08/17 22:37:36;;;;;;;10.23;4.20;;;27.30;51.50;;;;;;5054948;28;20037;-50
2021/08/17 22:40:04;;;;;;;11.55;4.05;;;27.30;51.60;;;;;;5053916;28;20017;-50
2021/08/17 22:42:30;;;;;;;10.23;3.75;;;27.30;51.30;;;;;;5053938;28;20086;-51
2021/08/17 22:44:57;;;;;;;12.02;4.28;;;27.30;51.40;;;;;;5060393;28;20492;-50
2021/08/17 22:47:23;;;;;;;10.68;3.88;;;27.20;51.80;;;;;;5074548;28;20016;-50
2021/08/17 22:49:50;;;;;;;13.50;3.88;;;27.20;50.70;;;;;;5074360;28;20134;-49
2021/08/17 22:52:16;;;;;;;11.68;4.40;;;27.20;51.10;;;;;;5074007;28;20032;-49
2021/08/17 22:54:43;;;;;;;12.70;3.90;;;27.20;51.60;;;;;;5065809;28;20120;-49
2021/08/17 22:57:09;;;;;;;11.32;4.40;;;27.10;51.40;;;;;;5053554;28;20542;-49
2021/08/17 22:59:36;;;;;;;11.75;4.47;;;27.10;51.70;;;;;;5053544;28;20027;-50
2021/08/17 23:02:04;;;;;;;13.48;4.57;;;27.10;51.80;;;;;;5053969;28;20075;-49
2021/08/17 23:04:31;;;;;;;11.50;4.32;;;27.10;52.20;;;;;;5053904;28;20025;-50
2021/08/17 23:06:58;;;;;;;15.75;4.60;;;27.10;52.70;;;;;;5049020;28;20025;-50
2021/08/17 23:09:25;;;;;;;15.88;3.95;;;27.00;52.80;;;;;;5048872;28;20017;-50
2021/08/17 23:11:51;;;;;;;13.50;3.90;;;27.10;53.20;;;;;;5051947;28;20025;-51
2021/08/17 23:14:18;;;;;;;10.75;4.25;;;27.00;53.20;;;;;;5052103;28;20393;-51
2021/08/17 23:16:44;;;;;;;13.15;4.20;;;27.00;53.40;;;;;;5052853;28;20045;-50
2021/08/17 23:19:11;;;;;;;16.88;4.40;;;27.00;53.60;;;;;;5052534;28;20028;-50
2021/08/17 23:21:40;;;;;;;11.40;4.55;;;26.90;53.50;;;;;;5053277;28;20127;-50
2021/08/17 23:24:08;;;;;;;11.65;4.07;;;26.90;53.90;;;;;;5052951;28;20049;-50
2021/08/17 23:26:34;;;;;;;10.77;4.72;;;26.90;53.00;;;;;;5053604;28;20029;-50
2021/08/17 23:29:01;;;;;;;14.43;4.40;;;26.90;53.40;;;;;;5053683;28;20028;-50
2021/08/17 23:31:28;;;;;;;13.23;4.47;;;26.90;53.70;;;;;;5053377;28;20024;-50
2021/08/17 23:33:56;;;;;;;13.73;4.97;;;26.90;53.80;;;;;;5053345;28;20411;-50
2021/08/17 23:36:22;;;;;;;12.63;4.60;;;26.80;53.90;;;;;;5052644;28;20025;-50
2021/08/17 23:38:49;;;;;;;12.63;4.85;;;26.80;54.10;;;;;;5053408;28;20025;-50
2021/08/17 23:41:16;;;;;;;12.63;5.10;;;26.80;54.30;;;;;;5053503;28;20017;-50
2021/08/17 23:43:42;;;;;;;13.23;4.85;;;26.70;54.30;;;;;;5052870;28;20021;-50
2021/08/17 23:46:10;;;;;;;12.18;5.15;;;26.70;54.20;;;;;;5052874;28;20036;-50
2021/08/17 23:48:36;;;;;;;11.90;4.63;;;26.70;54.30;;;;;;5053143;28;20439;-50
2021/08/17 23:51:05;;;;;;;14.35;4.72;;;26.70;54.30;;;;;;5053275;28;20185;-50
2021/08/17 23:53:32;;;;;;;11.05;4.70;;;26.70;54.20;;;;;;5053699;28;20019;-50
2021/08/17 23:55:58;;;;;;;12.73;4.18;;;26.70;53.60;;;;;;5053263;28;20477;-50
2021/08/17 23:58:25;;;;;;;12.27;4.70;;;26.70;54.10;;;;;;5052817;28;20044;-50
